SLSA/SBL METAR and TAF weather

Enter ICAO airport designator
Station Type Date Time Source
SLSA METAR 2019/04/24 16:00 UTC NOAA

SLSA 241600Z 11005KT 9999 SCT017 SCT080 28/24 Q1015


Station Type Date Time Source
SLSA Decoded METAR 2019/04/24 16:00 UTC NOAA

Santa Ana, Bolivia (SLSA) 13-46S 065-26W
Apr 24, 2019 - 12:00 PM EDT / 2019.04.24 1600 UTC
Wind: from the ESE (110 degrees) at 6 MPH (5 KT):0
Visibility: greater than 7 mile(s):0
Sky conditions: partly cloudy
Temperature: 82 F (28 C)
Dew Point: 75 F (24 C)
Relative Humidity: 78%
Pressure (altimeter): 29.97 in. Hg (1015 hPa)
ob: SLSA 241600Z 11005KT 9999 SCT017 SCT080 28/24 Q1015
cycle: 16

Station Type Date Time Source
SLSA TAF 2009/01/07 11:00 UTC NOAA

METAR SLSA 071100Z 00000KT 9999 FEW020 BKN080 26/24 Q1009

Example: see airport list